• Join FlightAware (Why Join?)
  • Login
  • US Flag 
03:13AM EDT


 

Airport Tracker/Info


-or-


 

Live Flight TrackerFlight Track Log ✈ N830QS ✈ 14-Jan-2014 ✈ KALB - KTEB

Flight Track Log - Related Links

Times and Time Zones

All times are in EST time to prevent confusion due to time zone crossing. See the N830QS flight status page for this flight to view local times or setup timezone preferences in your user account.

Time Position Orientation Groundspeed Altitude Reporting Facility
EST Latitude Longitude Course Direction KTS MPH feet Rate Location/Type
06:07PM 42.8044 -73.8308 333° Northwest 230 265 4,400  Level Boston Center
06:08PM 42.7656 -73.9011 233° Southwest 252 290 9,400 3,360 Climbing Boston Center
06:09PM 42.6939 -73.9397 202° Southwest 281 323 11,400 1,260 Climbing Boston Center
06:10PM 42.6239 -73.9756 201° Southwest 273 314 12,000 240 Climbing Boston Center
06:11PM 42.5478 -74.0156 201° Southwest 290 334 12,000  Level Boston Center
06:12PM 42.4664 -74.0567 200° South 291 335 12,000  Level Boston Center
06:13PM 42.3992 -74.0917 201° Southwest 259 298 12,100  Climbing Boston Center
06:14PM 42.3264 -74.1289 201° Southwest 267 307 12,100  Level Boston Center
06:15PM 42.2589 -74.1667 203° Southwest 259 298 12,100  Level Boston Center
06:16PM 42.1939 -74.1983 200° South 249 287 12,100  Level Boston Center
06:17PM 42.1264 -74.2322 200° South 257 296 12,100 -60 Level Boston Center
06:18PM 42.0572 -74.2669 200° South 248 285 12,000 -60 Descending Boston Center
06:19PM 41.9944 -74.3000 201° Southwest 243 280 12,000  Level Boston Center
06:20PM 41.9283 -74.3325 200° South 251 289 12,000  Level Boston Center
06:21PM 41.8567 -74.3689 201° Southwest 256 295 12,000 -60 Level Boston Center
06:22PM 41.7897 -74.4022 200° South 256 295 11,900 -900 Descending Boston Center
06:23PM 41.7214 -74.4364 200° South 263 303 10,200 -1,500 Descending Boston Center
06:24PM 41.6503 -74.4717 200° South 273 314 8,900 -1,500 Descending Boston Center
06:25PM 41.5767 -74.5081 200° South 264 304 7,200 -1,440 Descending Boston Center
06:27PM 41.5069 -74.5433 201° Southwest 269 310 6,000 -600 Descending Boston Center
06:28PM 41.4361 -74.5783 200° South 273 314 6,000  Level Boston Center
06:29PM 41.3569 -74.6006 192° South 280 322 6,000 -300 Level Boston Center
06:30PM 41.2500 -74.6000 180° South 285 328 5,300 -720 Descending New York TRACON
06:31PM 41.1667 -74.5833 171° South 282 325 4,300 -660 Descending New York TRACON
06:32PM 41.1333 -74.5333 132° Southeast 245 282 4,000 -600 Descending New York TRACON
06:33PM 41.1167 -74.4333 102° East 247 284 3,100 -540 Descending New York TRACON
06:34PM 41.1000 -74.3667 108° East 231 266 3,000 -60 Descending New York TRACON
06:35PM 41.0833 -74.2667 102° East 233 268 3,000  Level New York TRACON
06:36PM 41.0667 -74.2000 108° East 224 258 3,000 -300 Level New York TRACON
06:37PM 41.0500 -74.1167 105° East 190 219 2,400 -540 Descending New York TRACON
06:38PM 41.0333 -74.0667 114° Southeast 183 211 2,000 -240 Descending New York TRACON
06:39PM 40.9833 -74.0500 166° South 179 206 2,000 -240 Level New York TRACON
06:40PM 40.9333 -74.0500 180° South 171 197 1,600 -600 Descending New York TRACON
06:41PM 40.9000 -74.0500 180° South 133 153 800 -840 Descending New York TRACON
06:43PM 40.8500 -74.0500 153° Southeast  Level FlightAware Approximate
06:50PM 40.8501 -74.0608 153° Southeast  Level Estimated